Date,TemperatureHighF,TemperatureAvgF,TemperatureLowF,DewpointHighF,DewpointAvgF,DewpointLowF,HumidityHigh,HumidityAvg,HumidityLow,PressureMaxIn,PressureMinIn,WindSpeedMaxMPH,WindSpeedAvgMPH,GustSpeedMaxMPH,PrecipitationSumIn
2013-1-1,53,43,34,42,37,31,94,80,60,30.24,30.17,5,0,5,0.01
2013-1-2,57,40,30,40,34,28,95,80,46,30.22,30.09,1,0,1,0.00
2013-1-3,34,34,34,32,32,31,91,91,91,30.13,30.13,0,0,0,0.00
2013-1-4,59,47,35,44,40,34,96,77,48,30.26,30.14,1,0,2,0.00
2013-1-5,56,46,35,48,42,33,95,88,71,30.23,30.03,5,0,5,0.08
2013-1-6,49,45,38,46,43,36,98,93,87,30.17,30.02,3,0,3,0.10
2013-1-7,57,44,35,49,40,33,97,89,69,30.23,30.12,3,0,3,0.00
2013-1-8,62,52,42,49,44,40,93,77,57,30.14,30.08,2,0,3,0.01
2013-1-9,55,45,39,49,42,38,96,89,77,30.12,29.97,4,0,6,0.00
2013-1-10,51,42,37,40,36,33,93,80,61,30.17,30.05,5,0,6,0.00
2013-1-11,52,41,32,42,36,29,95,81,58,30.24,30.10,4,0,4,0.00
2013-1-12,51,39,30,36,29,21,95,71,34,30.23,30.10,0,0,0,0.00
2013-1-13,51,41,32,32,28,21,85,61,32,30.22,30.14,7,0,7,0.00
2013-1-14,53,38,28,28,24,20,81,60,30,30.38,30.19,4,0,4,0.00
2013-1-15,50,32,28,32,27,25,90,82,45,30.45,30.36,2,0,2,0.00
2013-1-17,48,45,41,39,38,37,90,76,68,30.23,30.21,1,0,2,0.00
2013-1-24,54,53,52,52,51,51,95,94,92,30.15,30.10,0,0,0,0.01
2013-1-25,65,55,50,58,52,48,97,90,73,30.15,30.00,3,0,4,0.03
2013-1-26,60,50,41,50,44,38,96,82,53,30.06,29.97,5,0,6,0.01
2013-1-27,57,47,39,42,39,33,93,76,41,30.15,30.05,5,0,5,0.00
2013-1-28,59,47,38,44,40,35,93,79,54,30.27,30.13,5,0,6,0.00
2013-1-29,46,40,38,44,38,36,95,92,87,30.32,30.26,1,0,2,0.00
2013-1-31,56,47,42,46,43,39,91,84,68,30.15,30.14,0,0,0,0.00
2013-2-1,42,42,41,39,39,39,91,91,91,30.15,30.15,0,0,0,0.00
2013-2-2,57,49,43,50,46,40,95,89,77,30.26,30.18,2,0,2,0.00
2013-2-3,59,49,41,47,43,38,97,82,60,30.22,30.10,4,0,4,0.00
2013-2-4,48,42,38,46,41,37,95,94,91,30.15,30.07,1,0,2,0.00
2013-2-5,56,48,41,47,44,39,95,85,70,30.13,30.05,5,0,5,0.00
2013-2-6,59,45,35,46,40,33,97,82,56,30.17,30.09,5,0,7,0.00
2013-2-7,44,43,41,42,40,38,91,91,90,30.02,29.97,2,0,2,0.07
2013-2-8,54,43,39,43,40,37,96,88,62,29.99,29.91,5,0,6,0.03
2013-2-11,64,52,33,45,36,29,95,60,29,30.20,30.11,3,0,4,0.00
2013-2-12,61,46,34,46,39,32,95,78,45,30.33,30.20,3,0,5,0.00
2013-2-13,64,47,34,50,41,32,95,81,53,30.31,30.18,3,0,3,0.00
2013-2-14,71,51,37,47,41,35,96,72,37,30.22,30.11,2,0,2,0.00
2013-2-15,45,45,45,40,40,40,85,85,84,30.18,30.17,0,0,0,0.00
2013-2-17,65,51,41,48,44,39,95,79,50,30.04,29.93,3,0,4,0.00
2013-2-18,54,47,38,45,40,36,95,79,59,30.02,29.95,5,0,5,0.00
2013-2-19,51,44,38,44,40,36,92,85,72,29.96,29.74,6,0,6,0.26
2013-2-20,60,45,33,43,38,31,95,78,43,30.04,29.81,4,0,5,0.00
2013-2-21,60,47,37,42,37,34,95,71,41,30.14,30.02,5,0,5,0.00
2013-2-22,63,48,34,47,38,31,92,73,42,30.23,30.14,5,0,5,0.00
2013-2-23,60,50,43,46,40,37,90,70,44,30.23,30.12,7,0,7,0.00
2013-2-24,64,50,38,42,34,27,82,58,26,30.23,30.13,4,0,4,0.00
2013-2-25,63,48,35,46,39,32,92,73,46,30.25,30.13,5,0,6,0.00
2013-2-26,64,46,36,42,36,31,95,73,29,30.18,30.09,2,0,3,0.00
2013-2-27,68,51,35,47,40,32,92,70,31,30.34,30.18,4,0,5,0.00
2013-2-28,68,54,42,53,47,39,96,81,56,30.42,30.34,6,0,7,0.00
2013-3-1,72,56,48,56,50,46,100,80,49,30.40,30.19,4,0,4,0.00
2013-3-2,69,57,47,55,50,45,94,79,57,30.20,30.02,3,0,3,0.00
2013-3-3,55,54,53,51,50,50,88,87,86,30.07,30.04,1,0,1,0.00
2013-3-4,52,47,43,44,42,40,87,82,74,30.05,30.03,1,0,3,0.00
2013-3-5,66,52,42,46,42,39,91,72,43,30.04,29.83,10,0,10,0.07
2013-3-6,60,51,42,46,43,38,93,75,48,30.04,29.84,5,0,7,0.07
2013-3-7,62,49,40,45,41,36,94,76,39,29.97,29.81,4,0,4,0.31
2013-3-8,63,51,44,49,44,41,95,79,50,30.05,29.80,5,0,6,0.10
2013-3-9,68,52,41,47,42,38,93,71,39,30.27,30.05,5,0,7,0.00
2013-3-10,72,52,38,49,40,35,94,69,30,30.32,30.21,3,0,3,0.00
2013-3-13,54,47,44,51,45,42,95,92,90,30.13,30.09,2,0,2,0.00
2013-3-20,55,54,54,51,50,49,85,84,83,30.10,30.10,2,0,2,0.12
2013-3-21,54,49,45,50,44,40,85,82,79,30.11,30.06,3,0,3,0.00
2013-3-25,59,52,47,48,44,42,82,72,63,29.99,29.92,4,0,5,0.00
2013-3-26,47,47,47,42,42,42,83,82,82,29.99,29.98,0,0,0,0.00
2013-3-30,67,64,61,57,56,54,86,76,65,29.95,29.92,2,0,2,0.01
2013-4-2,68,65,62,57,55,52,73,69,66,30.14,30.09,4,0,4,0.12
2013-4-7,72,58,50,56,50,46,93,76,53,30.14,29.85,2,0,7,0.02
2013-4-8,67,55,47,51,41,36,91,62,37,29.98,29.80,4,1,11,0.02
2013-4-9,75,60,47,44,41,38,81,53,30,30.05,29.98,4,0,7,0.00
2013-4-10,87,65,49,53,48,43,86,58,31,30.13,30.01,2,0,6,0.00
2013-4-11,74,59,50,53,47,44,85,67,39,30.05,29.82,2,0,4,0.00
2013-4-12,74,57,45,56,48,42,92,73,49,29.89,29.80,2,0,4,0.00
2013-4-13,71,57,47,54,45,40,90,68,43,29.88,29.81,3,0,7,0.00
2013-4-14,72,55,42,48,42,38,89,65,34,29.91,29.83,3,0,6,0.00
2013-4-15,61,52,45,48,43,39,84,71,44,29.90,29.84,2,0,7,0.00
2013-4-19,77,60,46,56,48,42,92,68,38,30.20,30.04,1,0,5,0.00
2013-4-20,83,63,48,53,48,44,89,63,30,30.08,29.94,1,0,4,0.00
2013-4-21,87,66,48,55,49,44,93,61,26,30.00,29.88,0,0,1,0.00
2013-4-22,90,68,51,57,49,46,86,56,22,29.93,29.79,0,0,1,0.00
2013-4-23,85,64,50,53,46,34,87,59,19,29.90,29.82,2,0,5,0.00
2013-4-24,70,59,49,54,50,45,88,74,56,29.91,29.80,2,0,4,0.00
2013-4-25,68,58,49,54,50,46,93,76,58,30.11,29.91,2,0,5,0.00
2013-4-26,69,58,50,54,50,45,87,74,58,30.19,30.10,2,0,4,0.00
2013-4-27,73,58,48,56,50,44,90,77,54,30.20,30.05,1,0,4,0.00
2013-4-28,79,63,49,59,52,46,92,71,45,30.06,29.84,2,0,4,0.00
2013-4-29,90,69,54,64,54,49,91,63,30,29.86,29.72,1,0,3,0.00
2013-4-30,83,64,52,56,50,45,89,64,27,29.82,29.75,1,0,4,0.00
2013-5-8,67,61,54,55,51,48,82,71,59,30.13,30.04,3,0,5,0.00
2013-5-9,69,59,53,54,50,48,84,73,55,30.16,30.06,4,0,7,0.00
2013-5-10,69,59,53,57,51,48,87,77,64,30.17,30.11,2,0,5,0.00
2013-5-11,80,65,56,62,55,51,87,73,45,30.13,30.00,1,0,3,0.00
2013-5-12,80,64,52,63,55,49,93,73,52,30.11,30.00,3,0,4,0.00
2013-5-13,76,63,51,60,53,47,93,72,49,30.07,29.93,2,0,7,0.00
2013-5-14,80,63,53,58,50,44,88,65,37,30.01,29.91,2,0,4,0.00
2013-5-15,74,60,49,51,47,43,85,63,38,30.04,29.99,2,0,5,0.00
2013-5-16,62,56,54,55,51,48,84,81,76,30.02,29.98,0,0,0,0.00
2013-5-18,76,68,59,56,51,46,69,54,38,30.10,30.05,2,0,4,0.00
2013-5-19,85,66,50,54,49,44,90,58,26,30.09,29.93,2,0,4,0.00
2013-5-20,91,70,51,60,49,38,92,57,18,29.96,29.88,2,0,4,0.00
2013-5-21,76,63,53,54,48,39,84,61,28,29.97,29.90,2,0,5,0.00
2013-5-22,68,54,47,41,38,33,70,56,27,29.99,29.94,2,0,4,0.00
2013-5-23,69,54,47,47,42,40,80,65,44,29.98,29.91,0,0,1,0.00
2013-5-31,88,72,60,59,55,53,77,58,34,29.91,29.86,0,0,1,0.02
2013-6-1,87,69,54,61,55,50,89,64,35,29.91,29.73,0,0,2,0.00
2013-6-2,76,63,54,59,54,49,89,72,51,29.76,29.64,1,0,4,0.00
2013-6-3,77,63,51,58,53,48,89,71,51,29.82,29.69,2,0,4,0.00
2013-6-4,72,63,58,58,54,52,84,74,59,29.93,29.82,2,0,4,0.00
2013-6-5,70,62,57,56,54,52,85,76,61,29.96,29.88,2,0,5,0.00
2013-6-6,60,58,57,55,53,52,85,83,82,29.93,29.89,0,0,0,0.00
2013-6-11,60,60,60,55,55,54,82,82,81,29.94,29.92,0,0,0,0.00
2013-6-12,79,65,51,58,50,42,92,62,34,29.98,29.88,0,0,0,0.00
2013-6-13,56,54,54,46,45,44,74,70,67,29.99,29.98,0,0,0,0.00
2013-6-21,71,63,59,50,49,49,72,61,47,29.91,29.89,0,0,2,0.00
2013-6-22,85,67,53,61,52,44,89,63,31,29.91,29.82,2,0,4,0.00
2013-6-23,73,65,59,61,58,53,86,76,63,29.86,29.77,1,0,4,0.00
2013-6-24,65,62,60,61,59,57,92,88,83,29.85,29.76,0,0,1,0.03
2013-6-25,66,65,65,61,61,61,86,85,84,29.94,29.93,0,0,0,0.03
2013-6-26,83,71,63,68,63,59,91,76,58,30.01,29.93,2,0,4,0.00
2013-6-27,88,73,60,66,60,57,93,69,37,30.04,29.96,2,0,3,0.00
2013-6-28,89,78,67,66,62,58,74,58,44,29.90,29.85,1,0,3,0.00
2013-6-29,95,75,60,66,60,56,91,64,32,29.89,29.76,2,0,5,0.00
2013-6-30,67,67,66,59,59,59,78,76,75,29.81,29.81,0,0,0,0.00
2013-7-1,89,73,60,68,61,56,91,69,43,29.81,29.77,0,0,0,0.00
2013-7-2,88,71,63,67,61,58,87,72,48,29.88,29.79,0,0,0,0.00
2013-7-3,89,72,63,67,62,58,87,72,44,29.88,29.72,0,0,0,0.00
2013-7-4,89,74,65,67,62,56,86,67,46,29.75,29.64,0,0,0,0.00
2013-7-5,78,67,58,59,54,50,83,66,47,29.78,29.68,0,0,0,0.00
2013-7-6,79,64,54,59,54,50,88,72,51,29.77,29.69,0,0,0,0.00
2013-7-7,78,66,58,61,56,52,86,72,53,29.82,29.73,0,0,0,0.00
2013-7-8,79,66,59,60,57,54,86,75,52,29.94,29.82,0,0,0,0.00
2013-7-9,85,69,59,64,59,55,90,72,43,29.99,29.88,0,0,0,0.00
2013-7-10,77,65,58,61,57,53,87,76,54,29.95,29.86,0,0,0,0.00
2013-7-11,74,64,58,59,56,53,85,75,59,29.91,29.85,0,0,0,0.00
2013-7-12,75,64,56,61,55,51,86,75,57,29.90,29.85,0,0,0,0.00
2013-7-13,80,65,53,62,56,50,94,74,46,29.93,29.86,0,0,0,0.00
2013-7-14,74,63,55,60,56,51,90,77,59,29.97,29.86,0,0,0,0.00
2013-7-15,72,63,57,59,55,52,86,76,60,29.90,29.79,0,0,0,0.00
2013-7-16,74,64,59,58,54,52,82,71,54,30.00,29.83,0,0,0,0.00
2013-7-17,74,64,58,59,56,53,84,74,59,30.07,30.00,0,0,0,0.00
2013-7-18,80,65,56,62,56,52,85,74,52,30.04,29.91,0,0,0,0.00
2013-7-19,80,65,57,62,57,53,87,75,53,29.93,29.79,0,0,0,0.00
2013-7-20,81,66,58,62,57,54,87,75,50,29.84,29.70,0,0,0,0.00
2013-7-21,78,66,59,62,57,54,88,76,55,29.85,29.74,0,0,0,0.00
2013-7-22,76,66,60,63,59,56,88,79,62,29.92,29.84,0,0,0,0.00
2013-7-23,76,67,61,64,60,57,89,77,60,29.96,29.91,0,0,0,0.00
2013-7-24,82,69,59,64,59,56,90,73,48,29.95,29.86,1,0,3,0.00
2013-7-25,78,66,57,62,58,54,90,76,53,30.00,29.90,2,0,4,0.00
2013-7-26,76,66,60,62,58,56,88,78,58,30.06,29.97,2,0,3,0.00
2013-7-27,76,66,60,63,58,56,88,77,59,30.01,29.82,1,0,3,0.00
2013-7-28,75,66,59,61,57,55,87,75,58,29.85,29.77,1,0,4,0.00
2013-7-29,76,64,53,60,55,49,90,75,56,29.97,29.81,1,0,4,0.00
2013-7-30,75,64,54,60,56,51,89,76,59,30.06,29.97,1,0,4,0.00
2013-7-31,76,65,57,61,55,50,86,71,51,30.05,29.98,2,0,4,0.00
2013-8-1,76,63,52,58,52,48,90,69,46,30.05,29.94,2,0,4,0.00
2013-8-2,76,63,51,60,54,48,92,75,54,29.96,29.87,1,0,5,0.00
2013-8-3,76,65,58,60,56,53,87,74,54,29.95,29.87,1,0,3,0.00
2013-8-4,72,63,57,59,56,53,87,78,62,29.98,29.92,1,0,3,0.00
2013-8-5,71,63,57,59,56,52,86,78,63,30.00,29.92,2,0,6,0.00
2013-8-6,73,63,57,60,55,53,86,76,61,30.01,29.95,1,0,4,0.00
2013-8-7,75,65,60,59,56,53,82,72,56,30.07,30.00,1,0,6,0.00
2013-9-21,56,55,54,53,52,52,92,91,90,29.87,29.86,0,0,0,0.54
2013-9-22,72,60,50,60,53,48,96,78,53,29.98,29.87,0,0,0,0.00
2013-9-23,80,65,51,61,55,48,94,72,46,29.99,29.88,0,0,0,0.00
2013-9-24,76,64,55,57,53,49,93,70,43,29.97,29.90,0,0,0,0.00
2013-9-25,70,61,54,50,48,46,83,65,45,29.91,29.81,0,0,0,0.00
2013-9-26,74,59,46,47,44,40,90,61,31,29.95,29.80,0,0,0,0.00
2013-9-27,79,60,45,48,43,40,91,58,27,30.06,29.95,0,0,0,0.00
2013-9-28,81,62,46,55,48,41,87,63,29,30.06,29.95,0,0,0,0.00
2013-9-29,76,63,51,61,56,49,93,77,57,30.07,30.00,0,0,0,0.00
2013-9-30,76,64,56,64,58,44,94,80,57,30.04,29.93,0,0,0,0.00
2013-10-1,72,60,49,55,49,44,88,68,51,29.99,29.89,0,0,0,0.00
2013-10-2,75,59,49,58,49,43,93,71,43,29.98,29.89,0,0,0,0.00
2013-10-3,74,58,45,48,42,39,88,59,31,30.04,29.91,0,0,0,0.00
2013-10-4,80,67,54,43,39,33,60,37,23,30.05,29.93,0,0,0,0.00
2013-10-5,83,63,45,46,40,37,82,49,20,30.16,30.05,0,0,0,0.00
2013-10-7,77,63,55,53,47,42,76,55,41,29.87,29.83,0,0,0,0.00
2013-10-8,75,59,47,55,47,43,91,67,41,29.87,29.70,0,0,0,0.00
2013-10-9,70,57,47,50,46,43,92,69,44,29.73,29.60,0,0,0,0.00
2013-10-10,72,57,46,53,47,41,87,71,47,29.98,29.72,0,0,0,0.00
2013-10-11,67,55,46,54,48,43,92,81,64,30.05,29.95,0,0,0,0.00
2013-10-12,69,56,46,56,48,43,93,77,44,29.98,29.87,0,0,0,0.00
2013-10-13,74,57,44,52,46,41,93,70,39,30.03,29.90,0,0,0,0.00
2013-10-14,71,50,43,49,44,40,92,82,38,30.08,30.02,0,0,0,0.00
2013-10-16,82,61,44,47,42,39,85,56,24,30.05,29.96,0,0,0,0.00
2013-10-17,81,60,45,51,44,38,88,60,23,30.04,29.91,0,0,0,0.00
2013-10-18,77,58,44,56,48,39,92,71,43,30.02,29.93,0,0,0,0.00
2013-10-19,78,66,52,60,53,48,94,65,40,30.04,29.94,0,0,0,0.00
2013-10-20,72,56,46,58,50,43,93,81,59,29.99,29.87,0,0,0,0.00
2013-10-21,64,54,48,54,50,45,93,88,69,29.97,29.92,0,0,0,0.00
2013-10-26,76,56,43,58,48,41,96,78,46,30.12,29.97,0,0,0,0.00
2013-10-28,57,57,57,48,48,48,73,73,73,29.74,29.74,0,0,0,0.00
2013-10-30,63,63,63,49,49,49,60,60,60,30.04,30.04,0,0,1,0.00
2013-10-31,73,54,41,52,45,39,93,74,40,30.14,30.02,0,0,0,0.00
2013-11-1,76,55,42,51,45,39,93,72,34,30.11,29.97,0,0,0,0.00
2013-11-2,69,54,42,55,47,40,94,80,59,30.00,29.88,0,0,0,0.00
2013-11-3,47,46,46,43,42,42,87,86,85,29.93,29.93,0,0,0,0.00
2013-11-6,71,71,71,44,44,44,38,38,38,30.13,30.13,0,0,0,0.00
2013-11-8,60,52,48,49,46,44,87,78,67,29.97,29.93,0,0,0,0.00
2013-11-9,70,52,42,54,46,39,95,83,55,30.01,29.92,0,0,0,0.00
2013-11-10,64,50,43,52,47,41,94,88,63,30.09,30.00,0,0,0,0.00
2013-11-11,64,57,51,53,51,50,94,82,67,30.11,30.04,0,0,0,0.00
2013-11-12,71,62,54,55,53,51,89,75,53,30.22,30.12,0,0,0,0.00
2013-11-14,59,54,48,51,48,46,92,82,75,29.91,29.87,0,0,0,0.00
2013-11-15,67,51,42,49,43,39,94,78,42,29.86,29.69,0,0,0,0.00
2013-11-16,63,51,41,49,43,39,91,76,58,29.84,29.76,0,0,0,0.00
2013-11-17,63,53,41,50,46,39,95,76,61,30.05,29.90,0,0,0,0.00
2013-11-18,59,49,40,50,44,38,95,84,70,30.11,30.04,0,0,0,0.00
2013-11-19,64,55,47,55,51,44,95,86,69,30.07,29.91,0,0,0,0.34
2013-11-20,61,54,50,59,53,48,97,95,94,29.91,29.82,0,0,0,0.48
2013-11-21,61,52,46,51,43,32,96,72,38,29.95,29.87,0,0,0,0.00
2013-11-22,69,50,38,40,33,26,85,57,22,30.00,29.86,0,0,0,0.00
2013-11-23,65,49,38,42,39,35,91,71,36,30.07,29.93,0,0,0,0.00
2013-11-24,64,51,37,46,42,35,93,72,46,30.21,30.07,0,0,0,0.00
2013-11-25,66,48,36,47,41,34,95,78,46,30.29,30.21,0,0,0,0.00
2013-11-26,62,50,40,50,44,38,95,80,56,30.21,29.99,0,0,0,0.00
2013-11-27,64,48,40,49,43,37,97,84,55,29.99,29.81,0,0,0,0.00
2013-11-29,67,50,39,49,43,37,95,78,45,30.18,30.05,0,0,0,0.00
2013-11-30,65,49,39,53,44,37,95,83,50,30.23,30.14,0,0,0,0.00
2013-12-1,67,49,39,52,44,37,96,82,52,30.30,30.17,0,0,0,0.00
2013-12-2,62,49,38,53,45,36,96,87,71,30.20,29.95,0,0,0,0.00
2013-12-3,56,48,37,50,41,33,94,76,51,29.95,29.82,3,0,4,0.00
2013-12-4,50,38,31,33,30,27,88,75,42,30.05,29.91,0,0,1,0.00
2013-12-5,51,37,26,27,24,21,88,63,33,30.14,30.05,1,0,1,0.00
2013-12-6,55,43,30,46,36,25,90,76,48,30.16,29.91,2,0,3,0.04
2013-12-8,47,41,29,29,27,23,80,58,45,30.29,30.21,4,0,4,0.18
2013-12-9,52,36,27,28,24,20,83,66,31,30.38,30.28,2,0,3,0.00
2013-12-10,53,37,26,33,28,23,90,73,43,30.37,30.17,2,0,2,0.00
2013-12-11,57,40,29,35,31,26,92,72,39,30.21,30.13,2,0,2,0.00
2013-12-12,58,40,28,40,32,26,92,76,40,30.23,30.12,1,0,1,0.00
2013-12-13,60,42,31,44,35,28,94,80,49,30.30,30.19,1,0,2,0.00
2013-12-14,61,42,31,42,35,29,94,77,45,30.36,30.26,1,0,2,0.00
2013-12-15,62,43,31,43,36,29,94,79,46,30.33,30.19,1,0,2,0.00
2013-12-16,60,40,35,42,35,32,93,85,50,30.20,30.13,1,0,2,0.00
2013-12-17,59,50,44,43,42,41,88,75,53,30.02,29.99,0,0,1,0.00
2013-12-18,57,49,40,49,44,37,93,83,63,29.99,29.76,2,0,3,0.00
2013-12-19,59,46,38,43,38,29,97,74,44,29.90,29.70,2,0,5,0.00
2013-12-20,62,44,31,32,27,18,86,57,20,29.98,29.89,2,0,2,0.00
2013-12-21,61,45,34,49,39,29,91,79,62,30.05,29.93,2,0,3,0.00
2013-12-22,68,47,35,48,39,34,96,76,35,30.25,30.05,1,0,2,0.00
2013-12-23,63,46,36,46,39,33,95,79,49,30.35,30.24,2,0,3,0.00
2013-12-24,70,48,36,47,40,34,94,77,39,30.30,30.16,1,0,3,0.00
2013-12-25,40,39,38,36,35,35,88,87,86,30.22,30.21,0,0,0,0.00
2013-12-28,56,40,33,38,34,31,92,80,51,30.09,29.99,0,0,1,0.00
2013-12-29,69,46,34,36,32,26,86,63,24,30.13,30.04,1,0,2,0.00
2013-12-30,64,44,32,41,35,28,90,72,37,30.22,30.13,1,0,2,0.00
2013-12-31,60,43,35,46,38,32,94,82,55,30.24,30.10,2,0,3,0.00
2014-1-1,60,41,32,47,36,30,95,84,58,30.18,30.08,1,0,2,0.00
2014-1-2,67,51,36,45,40,34,91,68,39,30.13,30.01,1,0,2,0.00